Time;durP1;ratioP1;P1;durP2;ratioP2;P2;SDS_P1;SDS_P2;PMS_P1;PMS_P2;Temp;Humidity;BMP_temperature;BMP_pressure;BME280_temperature;BME280_humidity;BME280_pressure;Samples;Min_cycle;Max_cycle;Signal;HPM_P1;HPM_P2
2022/08/01 00:01:04;;;;;;;3.10;2.80;;;21.70;99.90;;;;;;4976134;28;20164;-73
2022/08/01 00:03:29;;;;;;;2.73;2.53;;;21.70;99.90;;;;;;4975875;28;20181;-72
2022/08/01 00:05:55;;;;;;;3.00;2.80;;;21.80;99.90;;;;;;4975636;28;20609;-72
2022/08/01 00:08:20;;;;;;;4.77;4.10;;;21.80;99.90;;;;;;4975980;28;20181;-73
2022/08/01 00:10:46;;;;;;;2.60;2.40;;;21.80;99.90;;;;;;4975738;28;20667;-72
2022/08/01 00:13:11;;;;;;;4.47;3.40;;;21.80;99.90;;;;;;4975747;28;20705;-72
2022/08/01 00:15:37;;;;;;;3.43;3.23;;;21.60;99.90;;;;;;4975420;28;20263;-73
2022/08/01 00:18:03;;;;;;;3.40;3.20;;;21.60;99.90;;;;;;4979050;28;20742;-73
2022/08/01 00:20:28;;;;;;;3.23;2.97;;;21.50;99.90;;;;;;4976046;28;20652;-73
2022/08/01 00:22:54;;;;;;;3.60;3.30;;;21.50;99.90;;;;;;4976267;28;20194;-74
2022/08/01 00:25:19;;;;;;;3.90;3.60;;;21.50;99.90;;;;;;4975399;28;20204;-73
2022/08/01 00:27:45;;;;;;;3.77;3.10;;;21.40;99.90;;;;;;4975640;28;20631;-72
2022/08/01 00:30:10;;;;;;;2.93;2.70;;;21.30;99.90;;;;;;4975622;28;20272;-73
2022/08/01 00:32:36;;;;;;;3.60;3.30;;;21.30;99.90;;;;;;4975691;28;20626;-74
2022/08/01 00:35:02;;;;;;;3.07;2.87;;;21.40;99.90;;;;;;4975172;28;20337;-73
2022/08/01 00:37:27;;;;;;;4.20;3.90;;;21.40;99.90;;;;;;4975427;28;20279;-72
2022/08/01 00:39:54;;;;;;;3.77;3.27;;;21.20;99.90;;;;;;4975388;28;20168;-72
2022/08/01 00:42:19;;;;;;;3.20;2.93;;;21.20;99.90;;;;;;4975242;28;20187;-73
2022/08/01 00:44:45;;;;;;;3.17;2.87;;;21.10;99.90;;;;;;4974872;28;20437;-72
2022/08/01 00:47:10;;;;;;;3.37;3.17;;;21.10;99.90;;;;;;4975227;28;20174;-71
2022/08/01 00:49:36;;;;;;;3.50;3.07;;;21.00;99.90;;;;;;4975136;28;20182;-72
2022/08/01 00:52:04;;;;;;;5.13;3.23;;;20.90;99.90;;;;;;4975188;28;20174;-72
2022/08/01 00:54:31;;;;;;;4.50;4.10;;;20.90;99.90;;;;;;4973761;28;20193;-72
2022/08/01 00:56:57;;;;;;;5.40;3.67;;;20.80;99.90;;;;;;4975183;28;20460;-72
2022/08/01 00:59:23;;;;;;;3.77;3.40;;;20.80;99.90;;;;;;4974951;28;20845;-73
2022/08/01 01:01:49;;;;;;;3.87;3.57;;;20.70;99.90;;;;;;4974820;28;20481;-73
2022/08/01 01:04:15;;;;;;;3.67;3.40;;;20.70;99.90;;;;;;4974531;28;20469;-73
2022/08/01 01:06:59;;;;;;;3.73;3.17;;;20.50;99.90;;;;;;4974681;28;20467;-73
2022/08/01 01:09:39;;;;;;;3.00;2.73;;;20.50;99.90;;;;;;4974732;28;20180;-73
2022/08/01 01:12:15;;;;;;;3.43;3.17;;;20.60;99.90;;;;;;4974588;28;20442;-73
2022/08/01 01:14:56;;;;;;;3.70;3.40;;;20.60;99.90;;;;;;4974226;28;20422;-72
2022/08/01 01:17:31;;;;;;;4.03;3.63;;;20.60;99.90;;;;;;4974554;28;20464;-73
2022/08/01 01:19:59;;;;;;;3.50;3.00;;;20.60;99.90;;;;;;4974688;28;20771;-73
2022/08/01 01:22:50;;;;;;;4.80;3.37;;;20.60;99.90;;;;;;4975433;28;20468;-72
2022/08/01 01:25:46;;;;;;;3.37;3.13;;;20.60;99.90;;;;;;5005718;23;20489;-64
2022/08/01 01:28:29;;;;;;;3.60;3.10;;;20.40;99.90;;;;;;5005661;28;20505;-64
2022/08/01 01:30:58;;;;;;;3.90;3.60;;;20.50;99.90;;;;;;5012599;28;20411;-64
2022/08/01 01:33:28;;;;;;;4.00;3.60;;;20.50;99.90;;;;;;5012653;28;20499;-64
2022/08/01 01:36:00;;;;;;;3.83;3.50;;;20.60;99.90;;;;;;5012204;28;20432;-64
2022/08/01 01:38:33;;;;;;;3.67;3.37;;;20.40;99.90;;;;;;5012127;28;20453;-64
2022/08/01 01:41:02;;;;;;;4.53;3.27;;;20.60;99.90;;;;;;5009925;28;20425;-64
2022/08/01 01:43:29;;;;;;;5.80;3.80;;;20.60;99.90;;;;;;5012240;28;20407;-64
2022/08/01 01:45:55;;;;;;;4.20;3.80;;;20.50;99.90;;;;;;5011837;28;20519;-64
2022/08/01 01:48:24;;;;;;;5.40;4.40;;;20.50;99.90;;;;;;5012135;28;20416;-64
2022/08/01 01:50:52;;;;;;;3.40;3.20;;;20.50;99.90;;;;;;5012140;28;20976;-64
2022/08/01 01:53:21;;;;;;;3.57;3.27;;;20.40;99.90;;;;;;5012066;28;20461;-64
2022/08/01 01:55:51;;;;;;;3.37;3.10;;;20.50;99.90;;;;;;5011678;28;20430;-64
2022/08/01 01:58:19;;;;;;;3.43;3.13;;;20.50;99.90;;;;;;5011989;28;20472;-64
2022/08/01 02:00:47;;;;;;;4.23;3.93;;;20.50;99.90;;;;;;5011937;28;20737;-64
2022/08/01 02:03:14;;;;;;;4.03;3.43;;;20.40;99.90;;;;;;5011648;28;20409;-64
2022/08/01 02:05:41;;;;;;;3.50;3.30;;;20.30;99.90;;;;;;5011165;28;20855;-64
2022/08/01 02:08:09;;;;;;;3.93;3.50;;;20.20;99.90;;;;;;5010293;28;20467;-64
2022/08/01 02:10:37;;;;;;;4.70;3.77;;;20.30;99.90;;;;;;5011719;28;20782;-64
2022/08/01 02:13:04;;;;;;;6.47;3.90;;;20.20;99.90;;;;;;5011614;28;20508;-64
2022/08/01 02:15:32;;;;;;;5.03;3.87;;;20.20;99.90;;;;;;5010936;28;20428;-64
2022/08/01 02:18:00;;;;;;;3.40;3.10;;;20.00;99.90;;;;;;5011210;28;20454;-64
2022/08/01 02:20:30;;;;;;;3.77;3.47;;;20.00;99.90;;;;;;5011319;28;20806;-64
2022/08/01 02:23:01;;;;;;;5.30;4.40;;;20.00;99.90;;;;;;5011479;28;20411;-64
2022/08/01 02:25:39;;;;;;;3.67;3.37;;;19.90;99.90;;;;;;5010929;28;20914;-64
2022/08/01 02:28:08;;;;;;;3.77;3.47;;;20.00;99.90;;;;;;5011651;28;20780;-64
2022/08/01 02:30:36;;;;;;;4.77;4.37;;;20.00;99.90;;;;;;5011553;28;20405;-64
2022/08/01 02:33:06;;;;;;;6.37;4.77;;;19.90;99.90;;;;;;5011355;28;20894;-65
2022/08/01 02:35:37;;;;;;;5.67;4.80;;;19.70;99.90;;;;;;5011000;28;20439;-65
2022/08/01 02:38:07;;;;;;;5.10;4.70;;;19.90;99.90;;;;;;5011372;28;20503;-64
2022/08/01 02:40:36;;;;;;;4.50;4.10;;;20.00;99.90;;;;;;5011592;28;20415;-66
2022/08/01 02:43:04;;;;;;;4.40;3.70;;;19.90;99.90;;;;;;5011477;28;20401;-64
2022/08/01 02:45:32;;;;;;;4.30;4.00;;;19.90;99.90;;;;;;5010948;28;20780;-64
2022/08/01 02:48:13;;;;;;;4.30;4.00;;;19.80;99.90;;;;;;5011116;28;20408;-64
2022/08/01 02:50:42;;;;;;;4.57;4.23;;;19.80;99.90;;;;;;5011680;28;20929;-65
2022/08/01 02:53:10;;;;;;;8.53;5.27;;;19.70;99.90;;;;;;5011560;28;20419;-64
2022/08/01 02:55:36;;;;;;;4.87;4.37;;;19.70;99.90;;;;;;5010817;28;20429;-65
2022/08/01 02:58:03;;;;;;;3.57;3.27;;;19.70;99.90;;;;;;5011252;28;20469;-64
2022/08/01 03:00:30;;;;;;;5.13;4.37;;;19.60;99.90;;;;;;5011203;28;20408;-64
2022/08/01 03:02:57;;;;;;;5.03;4.37;;;19.70;99.90;;;;;;5011461;28;20865;-64
2022/08/01 03:05:24;;;;;;;4.00;3.70;;;19.70;99.90;;;;;;5010517;28;20420;-64
2022/08/01 03:07:52;;;;;;;4.40;4.10;;;19.50;99.90;;;;;;5011144;28;20511;-65
2022/08/01 03:10:18;;;;;;;4.00;3.67;;;19.40;99.90;;;;;;5011249;28;20420;-64
2022/08/01 03:12:46;;;;;;;5.10;4.27;;;19.50;99.90;;;;;;5009747;28;20466;-65
2022/08/01 03:15:13;;;;;;;7.00;3.70;;;19.50;99.90;;;;;;5010713;28;20420;-65
2022/08/01 03:17:43;;;;;;;4.10;3.70;;;19.60;99.90;;;;;;5010969;28;20450;-65
2022/08/01 03:20:12;;;;;;;4.93;4.50;;;19.60;99.90;;;;;;5014790;28;20404;-65
2022/08/01 03:22:40;;;;;;;5.17;4.67;;;19.70;99.90;;;;;;5014933;28;20493;-65
2022/08/01 03:25:07;;;;;;;4.10;3.77;;;19.80;99.90;;;;;;5014524;28;20496;-65
2022/08/01 03:27:34;;;;;;;4.27;3.93;;;19.80;99.90;;;;;;5015373;28;20415;-65
2022/08/01 03:30:04;;;;;;;4.90;4.50;;;19.80;99.90;;;;;;5014892;28;20953;-64
2022/08/01 03:32:30;;;;;;;3.70;3.43;;;19.70;99.90;;;;;;5014785;28;20758;-64
2022/08/01 03:34:57;;;;;;;7.50;5.00;;;19.70;99.90;;;;;;5014078;28;20439;-64
2022/08/01 03:37:29;;;;;;;4.10;3.80;;;19.70;99.90;;;;;;5014564;28;21012;-64
2022/08/01 03:39:58;;;;;;;4.53;4.20;;;19.70;99.90;;;;;;4995894;28;20782;-64
2022/08/01 03:42:47;;;;;;;5.60;5.00;;;19.60;99.90;;;;;;4975422;28;20464;-64
2022/08/01 03:45:22;;;;;;;5.67;5.23;;;19.70;99.90;;;;;;4974880;28;20441;-64
2022/08/01 03:47:52;;;;;;;5.27;4.80;;;19.80;99.90;;;;;;4975514;28;20411;-64
2022/08/01 03:50:22;;;;;;;5.53;4.80;;;19.80;99.90;;;;;;4975618;28;20405;-64
2022/08/01 03:52:49;;;;;;;5.77;5.23;;;20.00;99.90;;;;;;4975482;28;20523;-63
2022/08/01 03:55:16;;;;;;;5.77;4.80;;;20.10;99.90;;;;;;4974902;28;20442;-64
2022/08/01 03:57:43;;;;;;;8.23;6.10;;;20.50;99.90;;;;;;4975043;28;20552;-64
2022/08/01 04:00:10;;;;;;;6.60;5.40;;;20.50;99.90;;;;;;4975274;28;20491;-64
2022/08/01 04:02:36;;;;;;;3.73;3.30;;;20.40;99.90;;;;;;4975125;28;20419;-64
2022/08/01 04:05:03;;;;;;;5.07;4.67;;;20.50;99.90;;;;;;4974602;28;20937;-65
2022/08/01 04:07:31;;;;;;;11.73;4.53;;;20.30;99.90;;;;;;4975124;28;20462;-65
2022/08/01 04:09:57;;;;;;;5.63;4.47;;;20.20;99.90;;;;;;4975105;28;20408;-64
2022/08/01 04:12:23;;;;;;;4.97;4.60;;;20.30;99.90;;;;;;4974936;28;20760;-66
2022/08/01 04:14:49;;;;;;;7.60;4.63;;;20.10;99.90;;;;;;4974568;28;20520;-65
2022/08/01 04:17:16;;;;;;;5.47;4.77;;;20.00;99.90;;;;;;4974743;28;20871;-65
2022/08/01 04:19:42;;;;;;;4.57;4.17;;;20.00;99.90;;;;;;4974691;28;20402;-65
2022/08/01 04:22:10;;;;;;;6.53;4.17;;;20.00;99.90;;;;;;4988497;28;20426;-65
2022/08/01 04:24:36;;;;;;;4.50;3.90;;;20.10;99.90;;;;;;4997673;28;20512;-65
2022/08/01 04:27:06;;;;;;;5.63;5.03;;;20.00;99.90;;;;;;4988094;28;20463;-65
2022/08/01 04:29:34;;;;;;;7.13;4.70;;;20.10;99.90;;;;;;4987841;28;20445;-65
2022/08/01 04:32:01;;;;;;;6.63;5.57;;;20.10;99.90;;;;;;4992768;28;20467;-65
2022/08/01 04:34:30;;;;;;;6.00;5.40;;;20.10;99.90;;;;;;4993681;28;20404;-65
2022/08/01 04:36:57;;;;;;;14.37;10.80;;;20.60;99.90;;;;;;4993870;28;20789;-65
2022/08/01 04:39:27;;;;;;;32.30;22.47;;;20.80;99.90;;;;;;4986614;28;20446;-65
2022/08/01 04:41:56;;;;;;;7.93;6.40;;;20.80;99.90;;;;;;4994208;28;20420;-65
2022/08/01 04:44:22;;;;;;;9.30;6.27;;;20.80;99.90;;;;;;4993813;28;20408;-65
2022/08/01 04:46:49;;;;;;;6.37;5.67;;;20.70;99.90;;;;;;4993425;28;20583;-65
2022/08/01 04:49:16;;;;;;;8.67;6.10;;;20.40;99.90;;;;;;4993535;28;20511;-64
2022/08/01 04:51:52;;;;;;;9.07;5.87;;;20.30;99.90;;;;;;4993573;28;20411;-66
2022/08/01 04:54:18;;;;;;;6.77;6.07;;;20.70;99.90;;;;;;4993818;28;20414;-64
2022/08/01 04:56:43;;;;;;;10.77;6.97;;;20.40;99.90;;;;;;4985820;28;20592;-65
2022/08/01 05:01:53;;;;;;;9.83;8.27;;;20.50;99.90;;;;;;4993848;28;20263;-64
2022/08/01 05:04:19;;;;;;;16.40;9.53;;;20.70;99.90;;;;;;4992859;28;20459;-64
2022/08/01 05:06:44;;;;;;;8.73;6.90;;;20.60;99.90;;;;;;4993098;28;20210;-64
2022/08/01 05:09:10;;;;;;;8.77;6.60;;;20.60;99.90;;;;;;4993278;28;20183;-64
2022/08/01 05:11:35;;;;;;;8.60;6.10;;;20.50;99.90;;;;;;4993416;28;20184;-65
2022/08/01 05:14:01;;;;;;;6.07;5.53;;;20.20;99.90;;;;;;4993121;28;20273;-65
2022/08/01 05:16:26;;;;;;;7.50;6.07;;;19.90;99.90;;;;;;4992810;28;20191;-64
2022/08/01 05:18:52;;;;;;;9.10;7.27;;;19.90;99.90;;;;;;4992907;28;20270;-64
2022/08/01 05:21:17;;;;;;;8.60;6.47;;;19.90;99.90;;;;;;4993173;28;20637;-64
2022/08/01 05:23:43;;;;;;;11.50;7.83;;;20.00;99.90;;;;;;4993361;28;20212;-64
2022/08/01 05:26:10;;;;;;;9.03;5.87;;;19.90;99.90;;;;;;4992644;28;20222;-64
2022/08/01 05:28:35;;;;;;;5.93;5.33;;;19.90;99.90;;;;;;4992945;28;20599;-64
2022/08/01 05:31:01;;;;;;;7.03;5.67;;;20.00;99.90;;;;;;5007565;28;20410;-65
2022/08/01 05:33:26;;;;;;;7.17;5.33;;;20.10;99.90;;;;;;4992433;28;20311;-65
2022/08/01 05:35:52;;;;;;;5.37;4.83;;;20.10;99.90;;;;;;4992351;28;20245;-65
2022/08/01 05:38:17;;;;;;;6.80;6.20;;;20.10;99.90;;;;;;4992619;28;20201;-64
2022/08/01 05:40:43;;;;;;;6.53;5.37;;;20.10;99.90;;;;;;4991900;28;20174;-65
2022/08/01 05:43:08;;;;;;;5.83;5.33;;;20.30;99.90;;;;;;4992537;28;20169;-65
2022/08/01 05:45:34;;;;;;;7.60;5.90;;;20.20;99.90;;;;;;4992236;28;20183;-69
2022/08/01 05:47:59;;;;;;;5.63;5.10;;;20.20;99.90;;;;;;4992347;28;20380;-65
2022/08/01 05:50:25;;;;;;;6.90;5.23;;;20.10;99.90;;;;;;4992916;28;20258;-65
2022/08/01 05:52:50;;;;;;;9.80;4.67;;;20.20;99.90;;;;;;4992330;28;20233;-65
2022/08/01 05:55:16;;;;;;;6.60;5.80;;;20.30;99.90;;;;;;4992143;28;20209;-64
2022/08/01 05:57:42;;;;;;;5.10;4.70;;;20.50;99.90;;;;;;4992093;28;20210;-65
2022/08/01 06:00:08;;;;;;;5.27;4.77;;;20.40;99.90;;;;;;4991943;28;20546;-65
2022/08/01 06:02:33;;;;;;;4.73;4.33;;;20.50;99.90;;;;;;4991949;28;20178;-64
2022/08/01 06:04:59;;;;;;;4.80;4.40;;;20.60;99.90;;;;;;4991416;28;20438;-64
2022/08/01 06:07:24;;;;;;;4.90;4.50;;;20.60;99.90;;;;;;4992066;28;20650;-64
2022/08/01 06:09:50;;;;;;;4.67;4.37;;;20.70;99.90;;;;;;4991919;28;20647;-64
2022/08/01 06:12:15;;;;;;;8.57;5.83;;;20.70;99.90;;;;;;4991960;28;20522;-64
2022/08/01 06:14:41;;;;;;;7.50;4.60;;;20.60;99.90;;;;;;4991502;28;20176;-64
2022/08/01 06:17:06;;;;;;;5.90;5.30;;;20.70;99.90;;;;;;4991578;28;20247;-64
2022/08/01 06:19:32;;;;;;;5.90;4.50;;;20.40;99.90;;;;;;4991804;28;20176;-64
2022/08/01 06:21:58;;;;;;;5.40;4.90;;;20.50;99.90;;;;;;4991812;28;20176;-64
2022/08/01 06:24:23;;;;;;;5.13;4.73;;;20.60;99.90;;;;;;4991716;28;20178;-64
2022/08/01 06:26:49;;;;;;;4.43;3.53;;;20.60;99.90;;;;;;4991782;28;20337;-65
2022/08/01 06:29:15;;;;;;;4.90;4.10;;;20.30;99.90;;;;;;4991952;28;20665;-64
2022/08/01 06:31:40;;;;;;;4.87;4.23;;;20.50;99.90;;;;;;4991828;28;20414;-65
2022/08/01 06:34:06;;;;;;;3.43;3.13;;;20.50;99.90;;;;;;4991442;28;20602;-65
2022/08/01 06:36:31;;;;;;;3.40;3.10;;;20.80;99.90;;;;;;4991398;28;20212;-66
2022/08/01 06:38:57;;;;;;;3.63;3.33;;;21.00;99.90;;;;;;4991722;28;20229;-64
2022/08/01 06:41:23;;;;;;;3.20;2.70;;;21.10;99.90;;;;;;4991719;28;20189;-64
2022/08/01 06:43:48;;;;;;;3.27;2.50;;;21.00;99.90;;;;;;4991796;28;20261;-65
2022/08/01 06:46:14;;;;;;;2.50;2.30;;;21.10;99.90;;;;;;4991147;28;20514;-64
2022/08/01 06:48:40;;;;;;;2.53;2.33;;;21.10;99.90;;;;;;4991319;28;20305;-65
2022/08/01 06:51:08;;;;;;;3.37;3.07;;;21.20;99.90;;;;;;4992477;28;20174;-65
2022/08/01 06:53:36;;;;;;;5.97;4.97;;;21.30;99.90;;;;;;4991689;28;20182;-65
2022/08/01 06:56:02;;;;;;;7.70;6.70;;;21.50;99.90;;;;;;4991234;28;20992;-66
2022/08/01 06:58:27;;;;;;;3.10;2.80;;;21.50;99.90;;;;;;4991282;28;20488;-66
2022/08/01 07:00:53;;;;;;;3.27;2.83;;;21.30;99.90;;;;;;4988909;28;20922;-65
2022/08/01 07:03:18;;;;;;;3.07;2.87;;;21.30;99.90;;;;;;4984435;28;20192;-65
2022/08/01 07:05:44;;;;;;;2.30;2.20;;;21.10;99.90;;;;;;4973423;28;20235;-65
2022/08/01 07:08:10;;;;;;;2.73;2.53;;;20.90;99.90;;;;;;4995873;28;20188;-65
2022/08/01 07:10:35;;;;;;;2.80;2.40;;;20.90;99.90;;;;;;5006982;28;20189;-65
2022/08/01 07:13:01;;;;;;;3.60;3.00;;;20.90;99.90;;;;;;5010761;28;20315;-65
2022/08/01 07:15:26;;;;;;;3.50;3.20;;;20.70;99.90;;;;;;5010339;28;20688;-65
2022/08/01 07:17:52;;;;;;;4.60;4.20;;;20.90;99.90;;;;;;5010419;28;20207;-66
2022/08/01 07:20:19;;;;;;;2.13;2.03;;;21.10;99.90;;;;;;5010693;28;20175;-65
2022/08/01 07:22:44;;;;;;;2.43;2.23;;;21.40;99.90;;;;;;5000817;28;20308;-65
2022/08/01 07:25:10;;;;;;;3.10;2.80;;;21.40;99.90;;;;;;4990355;28;20559;-65
2022/08/01 07:27:36;;;;;;;2.80;2.60;;;21.20;99.90;;;;;;4990791;28;20171;-65
2022/08/01 07:30:03;;;;;;;4.20;3.80;;;21.10;99.90;;;;;;4997999;28;20186;-65
2022/08/01 07:32:29;;;;;;;3.33;2.90;;;21.10;99.90;;;;;;4990867;28;20423;-64
2022/08/01 07:34:55;;;;;;;4.07;3.67;;;21.00;99.90;;;;;;4990321;28;20408;-66
2022/08/01 07:37:20;;;;;;;3.03;2.73;;;20.90;99.90;;;;;;4990750;28;20221;-69
2022/08/01 07:39:46;;;;;;;3.03;2.50;;;20.80;99.90;;;;;;4990572;28;20419;-64
2022/08/01 07:42:11;;;;;;;4.30;4.00;;;20.80;99.90;;;;;;4990899;28;20697;-65
2022/08/01 07:44:37;;;;;;;2.83;2.50;;;20.80;99.90;;;;;;4990479;28;20288;-65
2022/08/01 07:47:04;;;;;;;5.20;4.07;;;20.90;99.90;;;;;;4990042;28;20232;-65
2022/08/01 07:49:29;;;;;;;4.70;4.30;;;21.10;99.90;;;;;;4990847;28;20818;-64
2022/08/01 07:51:55;;;;;;;2.20;2.10;;;21.20;99.90;;;;;;4990549;28;20508;-65
2022/08/01 07:54:23;;;;;;;4.30;2.90;;;21.30;99.90;;;;;;4990317;28;20583;-64
2022/08/01 07:56:49;;;;;;;2.60;2.40;;;21.40;99.90;;;;;;4990353;28;20210;-66
2022/08/01 07:59:15;;;;;;;3.10;2.80;;;21.50;99.90;;;;;;5014015;23;21086;-71
2022/08/01 08:01:41;;;;;;;4.20;3.80;;;21.30;99.90;;;;;;5008332;28;20492;-71
2022/08/01 08:04:07;;;;;;;3.80;3.40;;;21.50;99.90;;;;;;5012094;28;20225;-71
2022/08/01 08:06:32;;;;;;;4.50;3.30;;;21.30;99.90;;;;;;5014841;28;20403;-70
2022/08/01 08:08:58;;;;;;;9.07;7.77;;;21.00;99.90;;;;;;5006424;28;20285;-70
2022/08/01 08:11:23;;;;;;;4.33;3.90;;;21.10;99.90;;;;;;4995425;28;20650;-71
2022/08/01 08:13:49;;;;;;;2.73;2.50;;;21.30;99.90;;;;;;5000059;28;20578;-70
2022/08/01 08:16:14;;;;;;;3.30;3.00;;;21.30;99.90;;;;;;5014757;28;20206;-71
2022/08/01 08:18:40;;;;;;;3.90;2.77;;;21.00;99.90;;;;;;5014715;28;20217;-71
2022/08/01 08:21:05;;;;;;;5.20;3.73;;;20.90;99.90;;;;;;5014952;28;20203;-70
2022/08/01 08:26:15;;;;;;;10.33;7.70;;;21.10;99.90;;;;;;4995063;28;20181;-70
2022/08/01 08:28:41;;;;;;;3.73;2.80;;;21.50;99.90;;;;;;5007158;28;20420;-71
2022/08/01 08:31:07;;;;;;;2.93;2.50;;;21.70;99.90;;;;;;5014920;28;20257;-71
2022/08/01 08:33:33;;;;;;;3.47;3.10;;;21.80;99.90;;;;;;5014905;28;20175;-70
2022/08/01 08:35:58;;;;;;;2.97;2.77;;;21.70;99.90;;;;;;5014524;28;20968;-70
2022/08/01 08:38:26;;;;;;;4.10;3.30;;;22.10;99.90;;;;;;5014648;28;20199;-70
2022/08/01 08:40:52;;;;;;;2.27;2.10;;;22.00;99.90;;;;;;5014611;28;20202;-70
2022/08/01 08:43:19;;;;;;;2.53;2.33;;;22.10;99.90;;;;;;5014804;28;20776;-71
2022/08/01 08:45:45;;;;;;;3.20;2.70;;;22.20;99.90;;;;;;5014191;28;20421;-71
2022/08/01 08:48:13;;;;;;;2.40;2.20;;;22.50;99.90;;;;;;5014459;28;20412;-70
2022/08/01 08:50:40;;;;;;;1.70;1.60;;;22.00;99.90;;;;;;5014931;28;21017;-71
2022/08/01 08:53:09;;;;;;;3.27;1.83;;;22.20;99.90;;;;;;5018359;28;20415;-73
2022/08/01 08:55:35;;;;;;;3.53;1.70;;;22.00;99.90;;;;;;5014732;28;20413;-74
2022/08/01 08:58:05;;;;;;;2.27;2.07;;;22.30;99.90;;;;;;5014714;28;20465;-71
2022/08/01 09:00:32;;;;;;;1.50;1.40;;;22.50;99.90;;;;;;5014355;28;20460;-71
2022/08/01 09:02:57;;;;;;;2.77;1.63;;;22.40;99.90;;;;;;5014163;28;20412;-71
2022/08/01 09:05:27;;;;;;;2.77;1.93;;;22.20;99.90;;;;;;5013744;28;20410;-71
2022/08/01 09:07:53;;;;;;;2.20;2.00;;;22.50;99.90;;;;;;5014130;28;20182;-71
2022/08/01 09:10:18;;;;;;;1.40;1.10;;;23.40;99.90;;;;;;5013944;28;20908;-70
2022/08/01 09:13:11;;;;;;;1.50;1.20;;;23.60;99.90;;;;;;5013039;28;20422;-71
2022/08/01 09:15:53;;;;;;;1.30;1.20;;;24.00;99.90;;;;;;5012440;28;20470;-71
2022/08/01 09:18:33;;;;;;;1.30;1.20;;;23.50;99.90;;;;;;5013719;28;20452;-71
2022/08/01 09:21:09;;;;;;;1.33;1.20;;;23.60;99.90;;;;;;5013972;28;20410;-71
2022/08/01 09:23:39;;;;;;;2.70;2.00;;;24.00;99.90;;;;;;5014346;28;20898;-71
2022/08/01 09:26:06;;;;;;;1.40;1.30;;;23.50;99.90;;;;;;5013953;28;20405;-71
2022/08/01 09:28:32;;;;;;;1.63;1.53;;;23.90;99.90;;;;;;5014296;28;20437;-71
2022/08/01 09:30:58;;;;;;;2.47;1.97;;;23.60;99.90;;;;;;5013650;28;20437;-71
2022/08/01 09:33:24;;;;;;;3.23;2.93;;;23.70;99.90;;;;;;5014058;28;20410;-70
2022/08/01 09:35:57;;;;;;;1.90;1.60;;;23.40;99.90;;;;;;5014379;28;20468;-71
2022/08/01 09:38:28;;;;;;;1.47;1.37;;;23.30;99.90;;;;;;5014760;28;20450;-71
2022/08/01 09:40:59;;;;;;;1.40;1.30;;;23.30;99.90;;;;;;5013552;28;20427;-71
2022/08/01 09:43:29;;;;;;;2.67;2.23;;;23.10;99.90;;;;;;5013916;28;20445;-73
2022/08/01 09:45:56;;;;;;;1.83;1.70;;;23.10;99.90;;;;;;5013193;28;20442;-71
2022/08/01 09:48:22;;;;;;;1.83;1.73;;;22.80;99.90;;;;;;5013388;28;20417;-71
2022/08/01 09:50:51;;;;;;;1.77;1.43;;;22.60;99.90;;;;;;5010699;28;20565;-71
2022/08/01 09:53:17;;;;;;;2.50;2.13;;;22.80;99.90;;;;;;5009002;28;20920;-71
2022/08/01 09:55:43;;;;;;;3.60;2.53;;;22.80;99.90;;;;;;5008628;28;20415;-71
2022/08/01 09:58:10;;;;;;;3.97;3.67;;;22.80;99.90;;;;;;5013512;28;20201;-71
2022/08/01 10:00:36;;;;;;;2.30;2.13;;;23.20;99.90;;;;;;4997910;28;20525;-71
2022/08/01 10:03:18;;;;;;;2.90;2.57;;;23.10;99.90;;;;;;4993481;28;20885;-71
2022/08/01 10:05:44;;;;;;;1.40;1.30;;;23.20;99.90;;;;;;4999814;28;20243;-72
2022/08/01 10:08:10;;;;;;;2.53;2.33;;;23.20;99.90;;;;;;5010500;28;20436;-72
2022/08/01 10:10:36;;;;;;;4.33;1.70;;;22.60;99.90;;;;;;5012588;28;20199;-72
2022/08/01 10:13:02;;;;;;;4.10;2.00;;;22.60;99.90;;;;;;5012719;28;20178;-72
2022/08/01 10:15:29;;;;;;;3.57;3.00;;;22.70;99.90;;;;;;5013009;28;20174;-71
2022/08/01 10:18:01;;;;;;;1.73;1.63;;;22.60;99.90;;;;;;5015024;28;20446;-72
2022/08/01 10:20:29;;;;;;;2.30;1.93;;;22.50;99.90;;;;;;5019534;28;20433;-72
2022/08/01 10:22:58;;;;;;;1.80;1.50;;;22.30;99.90;;;;;;5019418;28;20485;-72
2022/08/01 10:25:27;;;;;;;2.10;2.00;;;22.10;99.90;;;;;;5007822;28;20912;-72
2022/08/01 10:27:56;;;;;;;1.83;1.70;;;22.00;99.90;;;;;;4993168;28;20411;-72
2022/08/01 10:30:22;;;;;;;2.20;1.90;;;22.30;99.90;;;;;;4993091;28;20428;-75
2022/08/01 10:32:50;;;;;;;1.87;1.40;;;22.60;99.90;;;;;;4992893;28;20416;-72
2022/08/01 10:35:17;;;;;;;1.80;1.60;;;22.40;99.90;;;;;;5006298;28;21000;-72
2022/08/01 10:37:45;;;;;;;1.60;1.50;;;22.60;99.90;;;;;;4993178;28;20910;-72
2022/08/01 10:40:15;;;;;;;1.83;1.70;;;22.30;99.90;;;;;;4997442;28;20497;-72
2022/08/01 10:42:45;;;;;;;4.50;3.33;;;22.50;99.90;;;;;;4998681;28;20836;-72
2022/08/01 10:45:13;;;;;;;3.40;3.00;;;22.40;99.90;;;;;;5011911;28;20878;-73
2022/08/01 10:48:01;;;;;;;1.70;1.60;;;22.60;99.90;;;;;;5012160;28;20407;-71
2022/08/01 10:50:49;;;;;;;1.40;1.30;;;22.80;99.90;;;;;;5012104;28;20507;-72
2022/08/01 10:53:20;;;;;;;1.20;1.10;;;22.60;99.90;;;;;;5011844;28;20494;-72
2022/08/01 10:55:58;;;;;;;1.43;1.33;;;22.20;99.90;;;;;;5012114;28;20437;-71
2022/08/01 10:58:32;;;;;;;5.67;3.60;;;22.20;99.90;;;;;;5012057;28;20470;-71
2022/08/01 11:01:14;;;;;;;1.67;1.57;;;22.50;99.90;;;;;;5011161;28;20464;-71
2022/08/01 11:03:40;;;;;;;3.10;2.70;;;22.40;99.90;;;;;;5011674;28;20923;-72
2022/08/01 11:06:07;;;;;;;1.63;1.53;;;22.40;99.90;;;;;;5011629;28;20955;-72
2022/08/01 11:08:37;;;;;;;1.30;1.20;;;22.80;99.90;;;;;;5011905;28;20400;-70
2022/08/01 11:11:04;;;;;;;1.37;1.27;;;23.10;99.90;;;;;;5011775;28;20406;-71
2022/08/01 11:14:12;;;;;;;1.30;1.10;;;23.10;99.90;;;;;;5012366;28;20409;-72
2022/08/01 11:16:39;;;;;;;2.37;1.53;;;22.80;99.90;;;;;;4970243;28;20416;-72
2022/08/01 11:19:08;;;;;;;1.70;1.57;;;22.90;99.90;;;;;;4970390;28;20474;-71
2022/08/01 11:22:02;;;;;;;1.23;1.10;;;23.10;99.90;;;;;;4992093;28;20414;-71
2022/08/01 11:24:45;;;;;;;1.20;1.10;;;22.70;99.90;;;;;;5010691;28;20494;-71
2022/08/01 11:27:19;;;;;;;1.30;1.20;;;22.30;99.90;;;;;;5011773;28;20434;-71
2022/08/01 11:30:10;;;;;;;1.47;1.33;;;22.20;99.90;;;;;;5011652;28;20434;-71
2022/08/01 11:32:56;;;;;;;1.73;1.30;;;22.10;99.90;;;;;;5011626;28;20606;-71
2022/08/01 11:35:24;;;;;;;1.40;1.30;;;21.90;99.90;;;;;;5011392;28;20409;-71
2022/08/01 11:37:51;;;;;;;1.40;1.30;;;21.80;99.90;;;;;;5011672;28;20441;-71
2022/08/01 11:40:23;;;;;;;3.30;1.50;;;21.80;99.90;;;;;;5014069;28;20429;-71
2022/08/01 11:43:08;;;;;;;1.50;1.40;;;21.50;99.90;;;;;;5015848;28;20445;-71
2022/08/01 11:45:56;;;;;;;1.30;1.20;;;21.80;99.90;;;;;;5015297;28;20402;-70
2022/08/01 11:48:26;;;;;;;1.20;1.10;;;21.90;99.90;;;;;;5009964;28;20861;-70
2022/08/01 11:50:53;;;;;;;1.57;1.20;;;22.10;99.90;;;;;;5015346;28;20438;-71
2022/08/01 11:53:20;;;;;;;1.77;1.60;;;22.30;99.90;;;;;;5015345;28;20475;-71
2022/08/01 11:55:51;;;;;;;1.10;1.00;;;22.50;99.90;;;;;;5013915;28;20514;-71
2022/08/01 11:58:22;;;;;;;1.23;1.13;;;22.50;99.90;;;;;;5015198;28;20986;-71
2022/08/01 12:00:56;;;;;;;1.57;1.20;;;22.40;99.90;;;;;;5015027;28;20448;-71
2022/08/01 12:03:29;;;;;;;1.30;1.20;;;22.80;99.90;;;;;;5015014;28;20502;-71
2022/08/01 12:05:55;;;;;;;2.33;1.07;;;23.10;99.90;;;;;;5015313;28;20401;-71
2022/08/01 12:08:29;;;;;;;1.20;1.10;;;23.30;99.90;;;;;;5015558;28;20402;-71
2022/08/01 12:10:55;;;;;;;4.70;1.10;;;23.80;99.90;;;;;;5015407;28;20421;-70
2022/08/01 12:13:21;;;;;;;1.20;1.07;;;23.90;99.90;;;;;;5015180;28;20458;-70
2022/08/01 12:15:47;;;;;;;1.10;1.00;;;24.20;99.90;;;;;;5014768;28;20206;-70
2022/08/01 12:18:13;;;;;;;1.03;0.93;;;24.20;99.90;;;;;;5014952;28;20547;-71
2022/08/01 12:20:41;;;;;;;2.07;1.03;;;24.20;99.90;;;;;;5015032;28;20487;-71
2022/08/01 12:23:10;;;;;;;2.07;1.10;;;24.40;99.90;;;;;;5015101;28;20452;-71
2022/08/01 12:25:36;;;;;;;1.07;0.97;;;24.30;99.90;;;;;;5015581;28;20409;-72
2022/08/01 12:28:05;;;;;;;1.00;0.90;;;24.00;99.90;;;;;;5016756;28;20460;-71
2022/08/01 12:30:34;;;;;;;3.53;0.90;;;24.10;99.90;;;;;;5015118;28;20559;-70
2022/08/01 12:33:01;;;;;;;1.10;0.80;;;24.10;99.90;;;;;;5014654;28;20491;-71
2022/08/01 12:35:28;;;;;;;1.97;1.47;;;24.30;99.90;;;;;;5014537;28;20978;-72
2022/08/01 12:38:01;;;;;;;1.40;1.10;;;24.80;99.90;;;;;;5014330;28;20450;-72
2022/08/01 12:40:34;;;;;;;1.20;1.10;;;24.70;99.90;;;;;;5014300;28;20526;-70
2022/08/01 12:43:02;;;;;;;1.20;1.03;;;24.20;99.90;;;;;;5014498;28;20403;-70
2022/08/01 12:45:35;;;;;;;1.10;1.00;;;24.30;99.90;;;;;;5013783;28;20446;-71
2022/08/01 12:48:01;;;;;;;1.20;1.10;;;24.30;99.90;;;;;;5013926;28;20962;-71
2022/08/01 12:50:32;;;;;;;1.70;1.43;;;24.20;99.90;;;;;;5014006;28;20428;-71
2022/08/01 12:52:58;;;;;;;1.70;1.60;;;24.60;99.90;;;;;;5014061;28;20469;-71
2022/08/01 12:55:25;;;;;;;1.77;1.67;;;24.70;99.90;;;;;;5013667;28;20782;-71
2022/08/01 12:58:12;;;;;;;1.40;1.30;;;24.90;99.90;;;;;;5014080;28;20447;-71